Time;durP1;ratioP1;P1;durP2;ratioP2;P2;SDS_P1;SDS_P2;PMS_P1;PMS_P2;Temp;Humidity;BMP_temperature;BMP_pressure;BME280_temperature;BME280_humidity;BME280_pressure;Samples;Min_cycle;Max_cycle;Signal;HPM_P1;HPM_P2
2023/09/24 00:01:13;;;;;;;;;4.00;4.00;;;;;21.84;41.69;101811.59;4939074;28;45767;-53
2023/09/24 00:03:38;;;;;;;;;7.25;6.00;;;;;21.82;41.76;101818.72;4939210;28;45320;-53
2023/09/24 00:06:09;;;;;;;;;6.00;5.00;;;;;21.83;41.58;101814.31;4939324;28;45253;-54
2023/09/24 00:08:34;;;;;;;;;6.25;5.00;;;;;21.81;41.84;101814.34;4938834;28;47198;-53
2023/09/24 00:11:02;;;;;;;;;8.25;5.75;;;;;21.82;41.63;101817.88;4938910;28;45300;-54
2023/09/24 00:13:28;;;;;;;;;5.00;4.25;;;;;21.80;41.74;101820.56;4939449;28;45341;-50
2023/09/24 00:15:54;;;;;;;;;7.50;5.00;;;;;21.79;41.85;101816.19;4939480;28;45515;-50
2023/09/24 00:18:19;;;;;;;;;5.75;5.00;;;;;21.79;41.77;101818.84;4938134;28;65849;-54
2023/09/24 00:20:46;;;;;;;;;5.00;5.00;;;;;21.77;41.91;101813.63;4937622;28;45346;-52
2023/09/24 00:23:11;;;;;;;;;4.00;4.00;;;;;21.77;41.86;101815.44;4938912;28;45340;-53
2023/09/24 00:25:37;;;;;;;;;5.00;4.75;;;;;21.73;42.33;101809.41;4938899;28;45330;-55
2023/09/24 00:28:04;;;;;;;;;5.75;5.00;;;;;21.75;41.99;101820.75;4938553;28;45370;-55
2023/09/24 00:30:31;;;;;;;;;6.75;6.00;;;;;21.74;41.85;101815.56;4938897;28;45418;-55
2023/09/24 00:32:57;;;;;;;;;7.00;5.00;;;;;21.72;41.76;101820.91;4939139;28;45351;-57
2023/09/24 00:35:22;;;;;;;;;6.75;5.50;;;;;21.72;41.89;101830.59;4938973;28;45645;-54
2023/09/24 00:37:48;;;;;;;;;7.50;5.00;;;;;21.69;41.75;101821.06;4938450;28;45552;-54
2023/09/24 00:40:13;;;;;;;;;7.25;5.75;;;;;21.70;42.04;101835.09;4937952;28;57276;-51
2023/09/24 00:42:38;;;;;;;;;6.00;6.00;;;;;21.70;42.08;101835.09;4938769;28;45454;-53
2023/09/24 00:45:10;;;;;;;;;5.00;4.25;;;;;21.69;42.17;101836.00;4921626;28;45470;-50
2023/09/24 00:47:37;;;;;;;;;6.00;4.25;;;;;21.69;42.02;101836.88;4938336;28;46166;-54
2023/09/24 00:50:06;;;;;;;;;3.25;3.25;;;;;21.68;41.94;101843.09;4938295;28;45699;-51
2023/09/24 00:52:31;;;;;;;;;5.25;4.75;;;;;21.69;42.14;101844.81;4938336;28;45335;-51
2023/09/24 00:54:57;;;;;;;;;6.50;5.50;;;;;21.65;42.18;101837.94;4938968;28;45573;-53
2023/09/24 00:57:23;;;;;;;;;5.25;5.00;;;;;21.66;41.95;101834.38;4921007;28;45411;-55
2023/09/24 00:59:49;;;;;;;;;6.50;6.00;;;;;21.65;41.92;101835.28;4938362;28;45857;-52
2023/09/24 01:02:14;;;;;;;;;5.50;5.50;;;;;21.60;42.04;101830.22;4938340;28;45324;-56
2023/09/24 01:04:39;;;;;;;;;5.00;5.00;;;;;21.60;41.95;101830.22;4938378;28;45237;-52
2023/09/24 01:07:05;;;;;;;;;6.00;4.50;;;;;21.59;42.06;101828.50;4937983;28;46353;-53
2023/09/24 01:09:30;;;;;;;;;5.00;5.00;;;;;21.61;42.11;101836.34;4938416;28;45242;-51
2023/09/24 01:12:02;;;;;;;;;6.75;4.00;;;;;21.59;41.82;101836.41;4938377;28;45367;-55
2023/09/24 01:14:28;;;;;;;;;4.50;3.00;;;;;21.59;41.83;101835.59;4938553;28;45431;-52
2023/09/24 01:16:53;;;;;;;;;6.50;4.75;;;;;21.57;42.07;101835.59;4937371;28;61644;-52
2023/09/24 01:19:20;;;;;;;;;4.00;4.00;;;;;21.55;41.94;101832.16;4937415;28;63242;-51
2023/09/24 01:21:49;;;;;;;;;5.75;4.75;;;;;21.54;41.81;101830.47;4938139;28;45358;-55
2023/09/24 01:24:15;;;;;;;;;5.00;5.00;;;;;21.53;41.90;101828.75;4938311;28;45599;-51
2023/09/24 01:26:40;;;;;;;;;7.00;6.00;;;;;21.52;42.11;101824.41;4937646;28;50912;-54
2023/09/24 01:29:11;;;;;;;;;6.00;4.00;;;;;21.51;42.25;101827.97;4937342;28;57714;-50
2023/09/24 01:31:38;;;;;;;;;4.00;4.00;;;;;21.53;42.00;101844.59;4939561;28;45282;-49
2023/09/24 01:34:05;;;;;;;;;4.50;4.00;;;;;21.53;42.22;101838.44;4941927;28;45732;-55
2023/09/24 01:36:32;;;;;;;;;6.50;4.00;;;;;21.52;42.23;101848.16;4941426;28;46143;-52
2023/09/24 01:38:58;;;;;;;;;4.50;4.50;;;;;21.49;42.50;101843.00;4941294;28;45350;-52
2023/09/24 01:41:25;;;;;;;;;4.75;3.50;;;;;21.51;42.11;101846.44;4941542;28;45382;-55
2023/09/24 01:43:51;;;;;;;;;4.25;4.25;;;;;21.51;42.21;101850.81;4941550;28;45233;-53
2023/09/24 01:46:20;;;;;;;;;5.00;4.00;;;;;21.50;42.17;101850.00;4941207;28;46275;-50
2023/09/24 01:48:49;;;;;;;;;4.00;4.00;;;;;21.49;42.11;101852.69;4940996;28;45326;-50
2023/09/24 01:51:15;;;;;;;;;6.00;5.00;;;;;21.46;42.30;101840.47;4940975;28;45374;-53
2023/09/24 01:53:42;;;;;;;;;6.25;5.50;;;;;21.46;42.27;101843.13;4941456;28;45301;-53
2023/09/24 01:56:08;;;;;;;;;4.25;4.25;;;;;21.46;42.08;101848.41;4940929;28;46104;-50
2023/09/24 01:58:35;;;;;;;;;7.00;3.75;;;;;21.43;42.38;101848.56;4941269;28;45488;-54
2023/09/24 02:01:02;;;;;;;;;6.50;6.00;;;;;21.44;42.19;101843.19;4941354;28;45483;-53
2023/09/24 02:03:28;;;;;;;;;6.00;4.50;;;;;21.44;42.30;101845.84;4941195;28;45333;-51
2023/09/24 02:05:53;;;;;;;;;4.50;4.00;;;;;21.44;42.02;101839.72;4940830;28;47044;-51
2023/09/24 02:08:19;;;;;;;;;4.75;4.00;;;;;21.44;42.15;101842.34;4940670;28;45322;-51
2023/09/24 02:10:45;;;;;;;;;4.25;4.00;;;;;21.43;42.37;101843.28;4940885;28;45284;-53
2023/09/24 02:13:12;;;;;;;;;5.25;5.00;;;;;21.42;42.19;101846.84;4941027;28;45161;-57
2023/09/24 02:15:38;;;;;;;;;4.50;3.00;;;;;21.44;42.42;101852.91;4940600;28;47177;-55
2023/09/24 02:18:04;;;;;;;;;6.50;5.00;;;;;21.43;42.35;101853.81;4940858;28;45372;-55
2023/09/24 02:22:57;;;;;;;;;2.00;2.00;;;;;21.41;42.24;101850.38;4941030;28;46024;-54
2023/09/24 02:25:28;;;;;;;;;5.25;5.25;;;;;21.43;42.41;101856.47;4923642;28;47042;-55
2023/09/24 02:27:55;;;;;;;;;4.00;4.00;;;;;21.42;42.19;101852.09;4923541;28;45819;-52
2023/09/24 02:30:21;;;;;;;;;7.50;5.00;;;;;21.42;42.25;101852.09;4940608;28;45363;-52
2023/09/24 02:32:47;;;;;;;;;6.75;5.25;;;;;21.41;42.27;101850.38;4940705;28;45480;-52
2023/09/24 02:35:14;;;;;;;;;6.75;5.50;;;;;21.39;42.26;101854.88;4939124;28;46334;-51
2023/09/24 02:37:40;;;;;;;;;6.25;5.25;;;;;21.39;42.45;101852.22;4940224;28;45863;-53
2023/09/24 02:40:17;;;;;;;;;4.75;4.75;;;;;21.38;42.44;101855.78;4940800;28;45295;-52
2023/09/24 02:42:45;;;;;;;;;4.25;3.50;;;;;21.39;42.24;101850.44;4939550;28;45266;-55
2023/09/24 02:45:11;;;;;;;;;7.00;4.75;;;;;21.39;42.44;101854.88;4940067;28;47187;-53
2023/09/24 02:47:36;;;;;;;;;4.00;4.00;;;;;21.38;42.57;101853.16;4940575;28;45949;-54
2023/09/24 02:50:08;;;;;;;;;4.25;4.25;;;;;21.38;42.17;101854.03;4938938;28;45370;-53
2023/09/24 02:52:34;;;;;;;;;5.00;4.50;;;;;21.37;42.41;101848.78;4940774;28;45364;-53
2023/09/24 02:54:59;;;;;;;;;4.00;4.00;;;;;21.38;42.33;101853.16;4940093;28;45440;-57
2023/09/24 02:57:26;;;;;;;;;6.75;5.75;;;;;21.39;42.36;101854.88;4940044;28;45435;-53
2023/09/24 02:59:51;;;;;;;;;6.50;5.25;;;;;21.36;42.40;101857.63;4940101;28;45407;-54
2023/09/24 03:02:17;;;;;;;;;5.00;3.75;;;;;21.37;42.39;101854.94;4940355;28;45589;-56
2023/09/24 03:04:42;;;;;;;;;6.25;5.75;;;;;21.37;42.20;101862.84;4939837;28;46088;-54
2023/09/24 03:07:09;;;;;;;;;4.00;4.00;;;;;21.37;42.14;101864.63;4939632;28;60913;-52
2023/09/24 03:09:34;;;;;;;;;9.25;5.00;;;;;21.36;42.51;101862.91;4922925;28;45439;-56
2023/09/24 03:11:59;;;;;;;;;4.00;4.00;;;;;21.35;42.25;101863.81;4939881;28;45298;-56
2023/09/24 03:14:25;;;;;;;;;6.75;6.75;;;;;21.35;42.13;101863.81;4939501;28;45288;-56
2023/09/24 03:16:50;;;;;;;;;9.00;5.00;;;;;21.32;42.34;101859.53;4939617;28;45404;-55
2023/09/24 03:19:15;;;;;;;;;6.33;5.00;;;;;21.29;41.91;101865.81;4939024;28;59387;-52
2023/09/24 03:21:40;;;;;;;;;7.50;4.00;;;;;21.26;42.03;101863.28;4939955;28;45450;-52
2023/09/24 03:24:10;;;;;;;;;6.50;6.00;;;;;21.21;42.20;101867.91;4939392;28;58937;-54
2023/09/24 03:26:36;;;;;;;;;6.00;5.00;;;;;21.21;42.46;101869.69;4938692;28;45714;-54
2023/09/24 03:29:03;;;;;;;;;5.00;5.00;;;;;21.18;42.57;101868.03;4939647;28;45408;-54
2023/09/24 03:31:28;;;;;;;;;8.75;4.75;;;;;21.17;42.36;101876.88;4939872;28;45466;-53
2023/09/24 03:33:54;;;;;;;;;4.50;4.50;;;;;21.16;42.33;101869.88;4939376;28;46160;-53
2023/09/24 03:36:19;;;;;;;;;5.50;5.50;;;;;21.15;42.56;101876.94;4939146;28;57472;-55
2023/09/24 03:38:45;;;;;;;;;6.25;6.25;;;;;21.16;42.64;101875.16;4939491;28;46164;-52
2023/09/24 03:41:10;;;;;;;;;7.00;6.00;;;;;21.17;42.51;101863.69;4940026;28;45658;-52
2023/09/24 03:43:36;;;;;;;;;6.25;4.75;;;;;21.10;42.41;101857.81;4939364;28;45318;-50
2023/09/24 03:46:01;;;;;;;;;6.00;6.00;;;;;21.17;42.18;101866.31;4939290;28;45261;-54
2023/09/24 03:48:27;;;;;;;;;6.25;4.75;;;;;21.19;42.38;101876.78;4939475;28;45317;-55
2023/09/24 03:50:53;;;;;;;;;5.25;5.25;;;;;21.19;42.71;101868.88;4939373;28;45378;-54
2023/09/24 03:53:19;;;;;;;;;8.50;5.50;;;;;21.17;42.62;101868.97;4939162;28;46103;-51
2023/09/24 03:55:50;;;;;;;;;7.00;4.75;;;;;21.17;42.44;101864.53;4938983;28;45384;-52
2023/09/24 03:58:17;;;;;;;;;9.25;5.50;;;;;21.19;42.44;101860.97;4939311;28;45357;-53
2023/09/24 04:00:43;;;;;;;;;8.00;6.00;;;;;21.18;42.64;101868.03;4939294;28;45307;-55
2023/09/24 04:03:08;;;;;;;;;6.50;5.00;;;;;21.21;42.52;101877.59;4939268;28;46302;-55
2023/09/24 04:05:34;;;;;;;;;5.00;5.00;;;;;21.21;42.62;101877.59;4939010;28;45352;-56
2023/09/24 04:08:01;;;;;;;;;4.50;4.50;;;;;21.21;42.69;101886.38;4939050;28;45360;-56
2023/09/24 04:10:29;;;;;;;;;6.00;6.00;;;;;21.21;42.39;101886.38;4939174;28;45413;-50
2023/09/24 04:12:54;;;;;;;;;5.75;5.75;;;;;21.19;42.63;101888.22;4938924;28;45220;-53
2023/09/24 04:15:27;;;;;;;;;4.50;3.25;;;;;21.21;42.67;101883.75;4938902;28;45225;-52
2023/09/24 04:17:52;;;;;;;;;8.00;6.00;;;;;21.19;42.42;101877.66;4939047;28;45397;-54
2023/09/24 04:20:20;;;;;;;;;6.00;5.00;;;;;21.21;42.36;101885.50;4939171;28;45651;-53
2023/09/24 04:22:47;;;;;;;;;7.00;5.00;;;;;21.20;42.61;101884.66;4938680;28;47113;-54
2023/09/24 04:25:17;;;;;;;;;8.00;5.50;;;;;21.20;42.60;101878.50;4939008;28;45265;-52
2023/09/24 04:27:42;;;;;;;;;6.00;6.00;;;;;21.19;42.47;101885.56;4938982;28;45394;-55
2023/09/24 04:30:15;;;;;;;;;7.50;6.00;;;;;21.20;42.72;101883.78;4938987;28;45401;-53
2023/09/24 04:32:40;;;;;;;;;7.75;5.50;;;;;21.19;42.39;101882.94;4937547;28;45568;-53
2023/09/24 04:35:09;;;;;;;;;5.75;5.00;;;;;21.21;42.53;101869.69;4938610;28;45398;-56
2023/09/24 04:37:35;;;;;;;;;8.75;5.00;;;;;21.20;42.52;101874.13;4938620;28;45197;-52
2023/09/24 04:40:01;;;;;;;;;9.25;6.00;;;;;21.19;42.42;101882.06;4938829;28;45534;-54
2023/09/24 04:42:26;;;;;;;;;4.75;4.75;;;;;21.15;42.49;101868.16;4938412;28;45359;-56
2023/09/24 04:44:51;;;;;;;;;6.00;6.00;;;;;21.16;42.50;101867.25;4937873;28;64007;-53
2023/09/24 04:47:17;;;;;;;;;5.00;5.00;;;;;21.14;42.76;101875.22;4938490;28;45440;-53
2023/09/24 04:49:42;;;;;;;;;4.00;4.00;;;;;21.14;42.51;101882.25;4938943;28;45237;-56
2023/09/24 04:52:07;;;;;;;;;4.50;4.25;;;;;21.14;42.85;101877.00;4938032;28;46552;-52
2023/09/24 04:54:33;;;;;;;;;6.67;5.00;;;;;21.13;42.31;101877.91;4937768;28;60690;-56
2023/09/24 04:56:58;;;;;;;;;5.25;5.25;;;;;21.12;42.53;101876.19;4921221;28;45197;-52
2023/09/24 04:59:23;;;;;;;;;6.00;4.67;;;;;21.09;42.75;101876.34;4938111;28;48086;-56
2023/09/24 05:01:50;;;;;;;;;5.75;4.50;;;;;21.06;42.70;101872.03;4937730;28;59518;-54
2023/09/24 05:04:17;;;;;;;;;6.50;5.75;;;;;21.06;42.56;101879.94;4938474;28;45831;-51
2023/09/24 05:06:42;;;;;;;;;4.25;4.25;;;;;21.05;42.72;101869.47;4936636;28;45381;-54
2023/09/24 05:09:08;;;;;;;;;4.75;4.75;;;;;21.05;42.97;101872.97;4938327;28;45349;-52
2023/09/24 05:11:33;;;;;;;;;4.50;4.50;;;;;21.04;42.56;101879.16;4938046;28;46204;-52
2023/09/24 05:13:59;;;;;;;;;4.50;4.50;;;;;21.05;42.82;101869.47;4938084;28;45272;-55
2023/09/24 05:16:24;;;;;;;;;6.00;6.00;;;;;21.04;42.70;101873.88;4920500;28;52942;-52
2023/09/24 05:18:50;;;;;;;;;5.75;4.00;;;;;21.06;42.60;101882.56;4938289;28;45327;-53
2023/09/24 05:21:17;;;;;;;;;6.50;4.75;;;;;21.05;42.67;101877.38;4938154;28;46329;-56
2023/09/24 05:23:42;;;;;;;;;4.00;4.00;;;;;21.05;42.38;101880.00;4938268;28;45191;-56
2023/09/24 05:26:12;;;;;;;;;7.50;6.00;;;;;21.06;42.49;101882.56;4938118;28;45232;-55
2023/09/24 05:28:38;;;;;;;;;6.00;4.00;;;;;21.06;42.31;101881.72;4938144;28;45326;-53
2023/09/24 05:31:03;;;;;;;;;7.00;5.75;;;;;21.06;42.81;101885.19;4937713;28;46695;-57
2023/09/24 05:33:28;;;;;;;;;7.50;3.25;;;;;21.05;43.03;101885.28;4937842;28;45414;-57
2023/09/24 05:35:54;;;;;;;;;6.25;6.25;;;;;21.05;42.44;101880.00;4937798;28;45370;-52
2023/09/24 05:38:19;;;;;;;;;6.25;6.00;;;;;21.06;42.82;101884.38;4938045;28;45611;-53
2023/09/24 05:40:45;;;;;;;;;5.50;5.00;;;;;21.06;42.89;101885.19;4938048;28;46977;-55
2023/09/24 05:43:11;;;;;;;;;6.00;5.00;;;;;21.07;42.67;101886.06;4937699;28;45693;-53
2023/09/24 05:45:44;;;;;;;;;9.25;6.75;;;;;21.07;42.33;101891.34;4937841;28;45319;-53
2023/09/24 05:48:09;;;;;;;;;4.75;4.25;;;;;21.07;42.49;101896.63;4937958;28;45311;-56
2023/09/24 05:50:34;;;;;;;;;5.00;5.00;;;;;21.06;42.35;101895.75;4937291;28;45309;-53
2023/09/24 05:53:00;;;;;;;;;7.50;4.00;;;;;21.07;42.48;101899.25;4942631;28;56041;-52
2023/09/24 05:55:25;;;;;;;;;7.00;5.00;;;;;21.05;42.82;101899.34;4957145;28;45228;-54
2023/09/24 05:57:50;;;;;;;;;7.00;6.00;;;;;21.07;42.66;101905.38;4956845;28;45315;-56
2023/09/24 06:00:16;;;;;;;;;7.75;5.50;;;;;21.07;42.70;101907.16;4956682;28;56717;-55
2023/09/24 06:02:42;;;;;;;;;8.75;4.00;;;;;21.06;42.53;101905.44;4956804;28;45737;-54
2023/09/24 06:05:09;;;;;;;;;6.50;4.75;;;;;21.07;42.51;101901.91;4956520;28;51578;-53
2023/09/24 06:07:34;;;;;;;;;8.25;5.25;;;;;21.06;42.28;101902.81;4956939;28;45519;-56
2023/09/24 06:10:04;;;;;;;;;5.50;5.50;;;;;21.04;42.30;101905.53;4956745;28;45468;-55
2023/09/24 06:12:30;;;;;;;;;8.25;6.00;;;;;21.03;42.42;101905.56;4955859;28;46339;-55
2023/09/24 06:14:55;;;;;;;;;5.00;5.00;;;;;21.02;42.33;101907.34;4956708;28;45378;-55
2023/09/24 06:17:21;;;;;;;;;6.75;4.75;;;;;21.03;42.60;101902.94;4958145;28;45558;-54
2023/09/24 06:19:46;;;;;;;;;7.00;5.00;;;;;21.01;42.37;101911.75;4960074;28;48905;-52
2023/09/24 06:22:11;;;;;;;;;10.00;6.25;;;;;20.98;42.48;101911.03;4959361;28;59825;-53
2023/09/24 06:24:37;;;;;;;;;4.67;4.67;;;;;20.98;42.28;101911.03;4959581;28;55535;-56
2023/09/24 06:27:04;;;;;;;;;6.00;5.50;;;;;20.97;42.64;101923.34;4958889;28;45366;-56
2023/09/24 06:29:29;;;;;;;;;6.25;5.00;;;;;20.93;42.65;101929.66;4959764;28;46600;-53
2023/09/24 06:31:55;;;;;;;;;5.25;3.50;;;;;20.93;42.69;101928.81;4959807;28;45419;-53
2023/09/24 06:34:20;;;;;;;;;8.00;5.00;;;;;20.93;42.48;101929.66;4960284;28;45342;-56
2023/09/24 06:36:46;;;;;;;;;7.75;6.00;;;;;20.93;42.65;101937.56;4958876;28;45581;-53
2023/09/24 06:39:13;;;;;;;;;7.00;5.75;;;;;20.95;42.66;101932.22;4959615;28;45314;-55
2023/09/24 06:41:40;;;;;;;;;8.25;6.00;;;;;20.97;42.53;101935.66;4959198;28;45856;-54
2023/09/24 06:44:05;;;;;;;;;3.50;2.25;;;;;20.96;42.55;101926.91;4959866;28;45430;-53
2023/09/24 06:46:30;;;;;;;;;6.75;5.50;;;;;20.96;42.46;101931.31;4958656;28;45785;-52
2023/09/24 06:48:57;;;;;;;;;6.00;5.00;;;;;20.95;42.65;101933.09;4959302;28;45410;-50
2023/09/24 06:51:22;;;;;;;;;4.25;4.25;;;;;20.95;42.56;101941.00;4959288;28;45355;-57
2023/09/24 06:53:50;;;;;;;;;7.00;5.50;;;;;20.95;42.76;101938.38;4959856;28;45360;-56
2023/09/24 06:56:16;;;;;;;;;4.75;4.75;;;;;20.95;42.34;101937.50;4959635;28;45503;-55
2023/09/24 06:58:41;;;;;;;;;6.75;6.00;;;;;20.97;42.39;101938.28;4959253;28;46446;-51
2023/09/24 07:01:06;;;;;;;;;5.00;5.00;;;;;20.97;42.48;101931.25;4959433;28;45330;-49
2023/09/24 07:03:32;;;;;;;;;6.50;5.75;;;;;21.00;42.59;101933.75;4959473;28;45326;-55
2023/09/24 07:05:58;;;;;;;;;7.75;5.25;;;;;21.02;42.76;101938.97;4959566;28;45533;-57
2023/09/24 07:08:23;;;;;;;;;8.75;6.00;;;;;21.03;42.45;101937.19;4959194;28;45318;-55
2023/09/24 07:11:38;;;;;;;;;5.50;5.00;;;;;21.03;42.68;101942.47;4959575;28;45382;-53
2023/09/24 07:14:06;;;;;;;;;5.00;5.00;;;;;21.01;42.37;101927.56;4955839;28;45648;-54
2023/09/24 07:16:32;;;;;;;;;5.25;5.25;;;;;21.01;42.37;101927.56;4959545;28;45541;-53
2023/09/24 07:18:58;;;;;;;;;4.75;4.25;;;;;21.05;42.50;101938.00;4959197;28;45503;-55
2023/09/24 07:21:28;;;;;;;;;6.75;5.00;;;;;21.05;42.36;101935.34;4959431;28;45382;-53
2023/09/24 07:23:58;;;;;;;;;9.75;5.50;;;;;21.05;42.52;101943.25;4959474;28;45316;-54
2023/09/24 07:26:24;;;;;;;;;4.25;4.25;;;;;21.04;42.15;101936.28;4958319;28;45488;-56
2023/09/24 07:28:50;;;;;;;;;8.00;5.75;;;;;21.05;42.35;101949.41;4958510;28;46345;-53
2023/09/24 07:31:22;;;;;;;;;6.75;3.75;;;;;21.05;42.54;101941.50;4958988;28;45450;-56
2023/09/24 07:34:00;;;;;;;;;4.75;3.00;;;;;21.06;42.55;101935.28;4959014;28;45275;-55
2023/09/24 07:36:25;;;;;;;;;7.25;7.00;;;;;21.05;42.10;101933.59;4959203;28;45361;-55
2023/09/24 07:38:51;;;;;;;;;4.75;4.25;;;;;21.01;42.54;101938.09;4958978;28;47003;-55
2023/09/24 07:41:17;;;;;;;;;6.50;5.50;;;;;21.03;42.17;101934.56;4958725;28;45430;-55
2023/09/24 07:43:42;;;;;;;;;6.25;5.50;;;;;20.99;42.47;101929.44;4958736;28;45485;-54
2023/09/24 07:46:15;;;;;;;;;5.00;5.00;;;;;20.99;42.47;101939.97;4958914;28;45262;-56
2023/09/24 07:48:44;;;;;;;;;8.00;5.00;;;;;20.98;42.48;101929.47;4958481;28;47188;-54
2023/09/24 07:51:11;;;;;;;;;3.75;3.00;;;;;20.99;42.34;101937.34;4958495;28;45801;-55
2023/09/24 07:53:36;;;;;;;;;5.50;5.25;;;;;20.98;42.25;101943.53;4958655;28;45394;-54
2023/09/24 07:56:07;;;;;;;;;7.50;6.00;;;;;21.00;42.21;101949.56;4957468;28;45537;-52
2023/09/24 07:58:37;;;;;;;;;4.75;4.25;;;;;20.99;42.27;101942.59;4958355;28;46273;-53
2023/09/24 08:01:05;;;;;;;;;7.25;4.00;;;;;21.00;42.37;101943.44;4958679;28;45779;-56
2023/09/24 08:03:31;;;;;;;;;7.00;5.00;;;;;21.01;42.31;101943.38;4958589;28;45381;-55
2023/09/24 08:05:57;;;;;;;;;5.25;5.25;;;;;21.04;42.47;101938.91;4958580;28;45710;-54
2023/09/24 08:08:23;;;;;;;;;5.50;4.50;;;;;21.04;42.61;101946.81;4958499;28;45386;-54
2023/09/24 08:10:50;;;;;;;;;6.00;5.25;;;;;21.05;42.28;101945.91;4958301;28;45473;-52
2023/09/24 08:13:15;;;;;;;;;5.00;5.00;;;;;21.03;42.30;101951.25;4958344;28;45252;-52
2023/09/24 08:15:40;;;;;;;;;6.00;4.00;;;;;21.01;42.02;101953.91;4958517;28;45292;-56
2023/09/24 08:18:09;;;;;;;;;5.00;4.50;;;;;21.00;42.45;101954.00;4958144;28;46013;-53
2023/09/24 08:20:37;;;;;;;;;4.75;4.75;;;;;21.03;42.24;101956.50;4958069;28;45955;-55
2023/09/24 08:23:03;;;;;;;;;7.75;5.00;;;;;21.03;42.29;101953.88;4958348;28;45377;-54
2023/09/24 08:25:29;;;;;;;;;4.00;4.00;;;;;21.04;42.21;101946.81;4941129;28;45378;-55
2023/09/24 08:27:55;;;;;;;;;5.25;5.25;;;;;21.01;42.04;101939.91;4958126;28;46208;-54
2023/09/24 08:30:20;;;;;;;;;7.00;4.25;;;;;21.03;42.21;101945.09;4958175;28;45263;-56
2023/09/24 08:32:45;;;;;;;;;5.25;3.75;;;;;21.01;42.42;101946.00;4958112;28;45362;-56
2023/09/24 17:38:00;;;;;;;;;3.00;1.00;;;;;21.40;37.40;101563.88;5885360;23;46917;-44
2023/09/24 17:40:26;;;;;;;;;1.75;1.75;;;;;21.39;37.36;101567.44;4917495;28;45427;-45
2023/09/24 17:42:51;;;;;;;;;1.75;1.00;;;;;21.37;37.48;101559.59;4919105;28;45454;-41
2023/09/24 17:45:17;;;;;;;;;2.75;1.00;;;;;21.40;37.83;101558.59;4918335;28;46585;-45
2023/09/24 17:47:42;;;;;;;;;3.75;1.75;;;;;21.40;37.87;101559.44;4918461;28;45262;-46
2023/09/24 17:50:08;;;;;;;;;1.75;1.75;;;;;21.41;37.91;101566.41;4918534;28;45431;-40
2023/09/24 17:52:33;;;;;;;;;1.75;1.75;;;;;21.41;37.76;101558.50;4918642;28;45609;-43
2023/09/24 17:54:58;;;;;;;;;0.50;0.50;;;;;21.43;37.96;101561.94;4917892;28;55116;-43
2023/09/24 17:57:23;;;;;;;;;2.50;2.00;;;;;21.42;37.83;101562.84;4918146;28;58146;-47
2023/09/24 17:59:49;;;;;;;;;2.00;2.00;;;;;21.46;37.56;101566.19;4918219;28;48214;-40
2023/09/24 18:02:14;;;;;;;;;1.00;1.00;;;;;21.44;37.61;101561.00;4918334;28;46866;-43
2023/09/24 18:04:39;;;;;;;;;1.50;1.25;;;;;21.47;37.86;101565.28;4917969;28;52068;-41
2023/09/24 18:07:05;;;;;;;;;4.00;2.00;;;;;21.48;37.90;101569.63;4918306;28;45249;-43
2023/09/24 18:09:30;;;;;;;;;2.00;2.00;;;;;21.52;37.73;101573.84;4918366;28;45310;-44
2023/09/24 18:11:55;;;;;;;;;2.50;2.00;;;;;21.51;38.01;101574.75;4901689;28;45356;-43
2023/09/24 18:14:21;;;;;;;;;4.75;2.00;;;;;21.58;38.21;101580.59;4920608;28;46192;-44
2023/09/24 18:16:46;;;;;;;;;5.00;1.25;;;;;21.62;37.91;101579.53;4921328;28;45498;-44
2023/09/24 18:19:11;;;;;;;;;2.33;2.33;;;;;21.64;37.82;101576.84;4921076;28;57103;-41
2023/09/24 18:21:37;;;;;;;;;2.00;2.00;;;;;21.66;37.78;101575.00;4921673;28;45217;-43
2023/09/24 18:24:02;;;;;;;;;3.50;2.00;;;;;21.69;37.88;101572.19;4921240;28;46980;-46
2023/09/24 18:26:27;;;;;;;;;2.75;1.75;;;;;21.70;37.81;101571.25;4904462;28;45328;-42
2023/09/24 18:28:53;;;;;;;;;4.00;2.00;;;;;21.70;37.58;101569.47;4921293;28;45359;-41
2023/09/24 18:31:18;;;;;;;;;3.00;2.75;;;;;21.71;37.80;101568.56;4921108;28;47604;-45
2023/09/24 18:33:43;;;;;;;;;10.25;7.25;;;;;21.71;37.93;101568.56;4921132;28;46413;-44
2023/09/24 18:36:09;;;;;;;;;13.75;11.00;;;;;21.72;38.33;101572.88;4921040;28;45983;-43
2023/09/24 18:38:34;;;;;;;;;25.75;17.50;;;;;21.74;38.13;101567.53;4920847;28;47800;-46
2023/09/24 18:41:00;;;;;;;;;29.25;21.75;;;;;21.74;38.27;101570.19;4921277;28;45310;-44
2023/09/24 18:43:27;;;;;;;;;49.25;36.75;;;;;21.73;38.51;101563.19;4921288;28;45472;-45
2023/09/24 18:45:53;;;;;;;;;43.75;32.25;;;;;21.75;38.54;101558.72;4920918;28;45391;-44
2023/09/24 18:48:22;;;;;;;;;54.00;40.33;;;;;21.73;38.44;101555.28;4920908;28;45395;-44
2023/09/24 18:50:47;;;;;;;;;47.00;35.50;;;;;21.75;38.65;101549.00;4921219;28;45375;-43
2023/09/24 18:53:13;;;;;;;;;62.25;44.00;;;;;21.76;38.52;101545.44;4920829;28;45663;-44
2023/09/24 18:55:38;;;;;;;;;54.00;42.50;;;;;21.77;38.71;101535.75;4920712;28;45193;-46
2023/09/24 18:58:04;;;;;;;;;50.25;36.25;;;;;21.78;38.80;101532.16;4920976;28;45325;-43
2023/09/24 19:00:30;;;;;;;;;49.25;35.50;;;;;21.81;38.75;101532.00;4921169;28;45569;-45
2023/09/24 19:02:55;;;;;;;;;40.00;29.75;;;;;21.81;38.71;101532.00;4920667;28;45389;-39
2023/09/24 19:05:21;;;;;;;;;46.67;31.33;;;;;21.85;38.99;101535.34;4920099;28;65192;-42
2023/09/24 19:07:46;;;;;;;;;43.00;30.25;;;;;21.86;38.70;101535.28;4920668;28;45395;-45
2023/09/24 19:10:14;;;;;;;;;36.50;30.25;;;;;21.88;38.88;101537.81;4920816;28;45588;-47
2023/09/24 19:12:44;;;;;;;;;31.75;28.25;;;;;21.91;38.60;101543.81;4919025;28;46803;-40
2023/09/24 19:15:10;;;;;;;;;35.50;26.50;;;;;21.91;38.74;101535.88;4919442;28;45373;-44
2023/09/24 19:17:37;;;;;;;;;31.50;24.00;;;;;21.91;38.83;101543.81;4920152;28;45520;-46
2023/09/24 19:20:02;;;;;;;;;31.75;23.75;;;;;21.94;38.71;101548.06;4919930;28;45344;-45
2023/09/24 19:22:28;;;;;;;;;22.50;18.50;;;;;21.91;38.67;101549.09;4920131;28;46166;-50
2023/09/24 19:24:53;;;;;;;;;33.75;24.75;;;;;21.93;38.71;101552.50;4901999;28;45403;-43
2023/09/24 19:27:19;;;;;;;;;31.50;25.50;;;;;21.92;38.75;101545.50;4919837;28;45231;-49
2023/09/24 19:29:45;;;;;;;;;31.25;24.75;;;;;21.91;38.74;101542.97;4920092;28;45553;-46
2023/09/24 19:32:10;;;;;;;;;26.00;23.75;;;;;21.90;38.90;101547.38;4919638;28;46324;-44
2023/09/24 19:34:36;;;;;;;;;37.50;26.50;;;;;21.91;38.80;101549.09;4919879;28;45365;-46
2023/09/24 19:37:01;;;;;;;;;32.75;25.50;;;;;21.91;38.79;101546.44;4920294;28;45263;-39
2023/09/24 19:39:26;;;;;;;;;21.50;18.25;;;;;21.93;38.81;101556.94;4920263;28;45348;-44
2023/09/24 19:41:52;;;;;;;;;27.25;19.50;;;;;21.93;38.87;101549.03;4919718;28;45540;-46
2023/09/24 19:44:19;;;;;;;;;13.25;5.00;;;;;21.93;38.83;101546.38;4919544;28;45280;-46
2023/09/24 19:46:44;;;;;;;;;31.25;22.75;;;;;21.90;38.66;101542.09;4902745;28;45415;-49
2023/09/24 19:49:09;;;;;;;;;21.00;19.00;;;;;21.92;38.61;101540.25;4902482;28;45422;-48
2023/09/24 19:51:35;;;;;;;;;23.75;20.00;;;;;21.90;38.56;101539.44;4918992;28;62911;-49
2023/09/24 19:54:00;;;;;;;;;15.00;11.50;;;;;21.90;38.73;101542.09;4920036;28;45410;-43
2023/09/24 19:56:26;;;;;;;;;24.50;18.25;;;;;21.90;38.90;101530.69;4919679;28;45307;-42
2023/09/24 19:58:51;;;;;;;;;23.50;16.00;;;;;21.89;38.98;101534.25;4919711;28;45442;-46
2023/09/24 20:01:17;;;;;;;;;21.50;18.50;;;;;21.88;39.03;101533.38;4918974;28;51080;-46
2023/09/24 20:03:43;;;;;;;;;19.50;17.25;;;;;21.89;38.84;101537.75;4919391;28;45340;-48
2023/09/24 20:06:08;;;;;;;;;19.75;17.25;;;;;21.88;38.96;101541.31;4919322;28;45399;-46
2023/09/24 20:08:41;;;;;;;;;19.25;13.50;;;;;21.92;38.93;101542.03;4919579;28;45666;-46
2023/09/24 20:11:06;;;;;;;;;24.25;16.25;;;;;21.90;39.01;101536.81;4919064;28;45624;-44
2023/09/24 20:13:39;;;;;;;;;19.50;12.00;;;;;21.91;38.72;101538.53;4919164;28;45454;-37
2023/09/24 20:16:05;;;;;;;;;14.75;11.50;;;;;21.90;38.87;101531.53;4919087;28;45323;-39
2023/09/24 20:18:31;;;;;;;;;16.50;15.25;;;;;21.91;38.67;101541.16;4919688;28;45411;-43
2023/09/24 20:20:57;;;;;;;;;16.75;13.25;;;;;21.92;39.10;101539.41;4902180;28;47492;-40
2023/09/24 20:23:22;;;;;;;;;16.50;12.00;;;;;21.92;39.39;101537.59;4901864;28;45374;-40